Time;durP1;ratioP1;P1;durP2;ratioP2;P2;SDS_P1;SDS_P2;PMS_P1;PMS_P2;Temp;Humidity;BMP_temperature;BMP_pressure;BME280_temperature;BME280_humidity;BME280_pressure;Samples;Min_cycle;Max_cycle;Signal;HPM_P1;HPM_P2
2023/11/08 00:00:47;;;;;;;0.10;0.10;;;9.30;99.90;;;;;;5069071;28;20732;-78
2023/11/08 00:03:15;;;;;;;0.10;0.10;;;9.30;99.90;;;;;;5062256;28;20209;-78
2023/11/08 00:05:41;;;;;;;0.10;0.10;;;9.20;99.90;;;;;;5067735;28;20185;-78
2023/11/08 00:08:07;;;;;;;0.10;0.10;;;9.30;99.90;;;;;;5062200;28;20214;-78
2023/11/08 00:10:33;;;;;;;0.10;0.10;;;9.20;99.90;;;;;;5069019;28;20189;-78
2023/11/08 00:12:59;;;;;;;0.10;0.10;;;9.30;99.90;;;;;;5068355;28;20196;-78
2023/11/08 00:15:25;;;;;;;0.10;0.10;;;9.30;99.90;;;;;;5063382;28;20173;-78
2023/11/08 00:17:50;;;;;;;0.10;0.10;;;9.20;99.90;;;;;;5067888;28;21006;-78
2023/11/08 00:20:16;;;;;;;0.00;0.00;;;9.20;99.90;;;;;;5066679;28;20188;-78
2023/11/08 00:22:44;;;;;;;0.10;0.10;;;9.20;99.90;;;;;;5064784;28;20657;-78
2023/11/08 00:25:10;;;;;;;0.10;0.10;;;9.20;99.90;;;;;;5067045;28;20249;-78
2023/11/08 00:27:36;;;;;;;0.10;0.10;;;9.10;99.90;;;;;;5065798;28;20181;-78
2023/11/08 00:30:03;;;;;;;0.00;0.00;;;9.10;99.90;;;;;;5065600;28;20186;-78
2023/11/08 00:32:29;;;;;;;0.10;0.10;;;9.00;99.90;;;;;;5064568;28;20204;-78
2023/11/08 00:34:54;;;;;;;0.10;0.10;;;9.00;99.90;;;;;;5066736;28;20245;-78
2023/11/08 00:37:20;;;;;;;0.10;0.10;;;9.00;99.90;;;;;;5067760;28;20176;-78
2023/11/08 00:39:47;;;;;;;0.00;0.00;;;9.00;99.90;;;;;;5070334;28;21047;-78
2023/11/08 00:42:13;;;;;;;0.10;0.10;;;9.00;99.90;;;;;;5070907;28;20218;-78
2023/11/08 00:44:38;;;;;;;0.00;0.00;;;8.90;99.90;;;;;;5072563;28;20692;-78
2023/11/08 00:47:05;;;;;;;0.10;0.10;;;8.80;99.90;;;;;;5071274;28;20198;-78
2023/11/08 00:49:30;;;;;;;0.10;0.10;;;8.90;99.90;;;;;;5072465;28;20669;-78
2023/11/08 00:51:59;;;;;;;0.00;0.00;;;8.90;99.90;;;;;;5071868;28;20289;-78
2023/11/08 00:54:25;;;;;;;0.10;0.10;;;8.90;99.90;;;;;;5071450;28;20289;-78
2023/11/08 00:56:51;;;;;;;0.10;0.10;;;8.90;99.90;;;;;;5064740;28;20272;-78
2023/11/08 00:59:18;;;;;;;0.00;0.00;;;9.00;99.90;;;;;;5070691;28;20223;-78
2023/11/08 01:01:43;;;;;;;0.07;0.07;;;8.90;99.90;;;;;;5067081;28;20207;-78
2023/11/08 01:04:11;;;;;;;0.10;0.10;;;9.00;99.90;;;;;;5065338;28;20676;-78
2023/11/08 01:06:40;;;;;;;0.10;0.10;;;9.00;99.90;;;;;;5070494;28;20275;-78
2023/11/08 01:09:10;;;;;;;0.10;0.10;;;9.00;99.90;;;;;;5086864;28;20276;-78
2023/11/08 01:11:37;;;;;;;0.10;0.10;;;9.00;99.90;;;;;;5071885;28;20648;-78
2023/11/08 01:14:04;;;;;;;0.10;0.10;;;9.00;99.90;;;;;;5071662;28;20672;-78
2023/11/08 01:16:33;;;;;;;0.10;0.10;;;9.00;99.90;;;;;;5063332;28;20267;-78
2023/11/08 01:18:58;;;;;;;0.10;0.10;;;9.00;99.90;;;;;;5066577;28;20185;-78
2023/11/08 01:21:25;;;;;;;0.10;0.10;;;9.00;99.90;;;;;;5071594;28;20184;-78
2023/11/08 01:23:51;;;;;;;0.10;0.10;;;9.20;99.90;;;;;;5071541;28;20203;-78
2023/11/08 01:26:17;;;;;;;0.10;0.10;;;9.20;99.90;;;;;;5067898;28;20181;-78
2023/11/08 01:28:42;;;;;;;0.10;0.10;;;9.20;99.90;;;;;;5071372;28;20191;-78
2023/11/08 01:31:08;;;;;;;0.10;0.10;;;9.30;99.90;;;;;;5070601;28;20184;-78
2023/11/08 01:33:34;;;;;;;0.10;0.10;;;9.40;99.90;;;;;;5064240;28;20216;-78
2023/11/08 01:36:00;;;;;;;0.10;0.10;;;9.40;99.90;;;;;;5069437;28;20192;-78
2023/11/08 01:38:25;;;;;;;0.10;0.10;;;9.20;99.90;;;;;;5069481;28;20177;-78
2023/11/08 01:40:51;;;;;;;0.10;0.10;;;9.20;99.90;;;;;;5071163;28;20256;-78
2023/11/08 01:43:30;;;;;;;0.10;0.10;;;9.30;99.90;;;;;;5067256;28;20192;-78
2023/11/08 01:46:11;;;;;;;0.10;0.10;;;9.30;99.90;;;;;;5070196;28;20180;-78
2023/11/08 01:48:40;;;;;;;0.10;0.10;;;9.40;99.90;;;;;;5070976;28;20200;-78
2023/11/08 01:51:06;;;;;;;0.10;0.10;;;9.50;99.90;;;;;;5069995;28;20655;-78
2023/11/08 01:53:39;;;;;;;0.10;0.10;;;9.50;99.90;;;;;;5069458;28;20255;-78
2023/11/08 01:56:06;;;;;;;0.10;0.10;;;9.50;99.90;;;;;;5068329;28;20217;-78
2023/11/08 01:58:38;;;;;;;0.00;0.00;;;9.50;99.90;;;;;;5071199;28;20213;-78
2023/11/08 02:01:08;;;;;;;0.10;0.10;;;9.50;99.90;;;;;;5068811;28;20211;-78
2023/11/08 02:03:38;;;;;;;0.10;0.10;;;9.60;99.90;;;;;;5069214;28;20235;-78
2023/11/08 02:06:07;;;;;;;0.10;0.10;;;9.50;99.90;;;;;;5070968;28;20185;-78
2023/11/08 02:08:33;;;;;;;0.10;0.10;;;9.50;99.90;;;;;;5064843;28;20185;-78
2023/11/08 02:10:59;;;;;;;1.17;1.17;;;9.60;99.90;;;;;;5069561;28;20280;-78
2023/11/08 02:13:26;;;;;;;0.10;0.10;;;9.60;99.90;;;;;;5070212;28;20295;-78
2023/11/08 02:15:52;;;;;;;0.10;0.10;;;9.60;99.90;;;;;;5064678;28;20523;-78
2023/11/08 02:18:18;;;;;;;0.10;0.10;;;9.60;99.90;;;;;;5062473;28;20279;-78
2023/11/08 02:20:44;;;;;;;0.10;0.10;;;9.60;99.90;;;;;;5071154;28;20180;-78
2023/11/08 02:23:10;;;;;;;0.10;0.10;;;9.60;99.90;;;;;;5071094;28;20207;-78
2023/11/08 02:25:38;;;;;;;0.10;0.10;;;9.60;99.90;;;;;;5065265;28;20216;-78
2023/11/08 02:28:03;;;;;;;0.10;0.10;;;9.60;99.90;;;;;;5070785;28;20185;-78
2023/11/08 02:30:29;;;;;;;0.10;0.10;;;9.60;99.90;;;;;;5067924;28;20195;-78
2023/11/08 02:32:55;;;;;;;0.10;0.10;;;9.50;99.90;;;;;;5066428;28;20197;-78
2023/11/08 02:35:20;;;;;;;0.03;0.03;;;9.50;99.90;;;;;;5066290;28;20207;-78
2023/11/08 02:37:48;;;;;;;0.10;0.10;;;9.50;99.90;;;;;;5069165;28;20195;-78
2023/11/08 02:40:14;;;;;;;0.10;0.10;;;9.40;99.90;;;;;;5069069;28;20192;-78
2023/11/08 02:42:44;;;;;;;0.10;0.10;;;9.40;99.90;;;;;;5065149;28;20217;-78
2023/11/08 02:45:10;;;;;;;0.10;0.10;;;9.40;99.90;;;;;;5068063;28;20258;-78
2023/11/08 02:47:36;;;;;;;0.10;0.10;;;9.40;99.90;;;;;;5069421;28;20609;-79
2023/11/08 02:50:02;;;;;;;0.10;0.10;;;9.40;99.90;;;;;;5068469;28;20211;-78
2023/11/08 02:52:28;;;;;;;0.10;0.10;;;9.40;99.90;;;;;;5067099;28;20209;-78
2023/11/08 02:54:53;;;;;;;0.10;0.10;;;9.50;99.90;;;;;;5067644;28;20231;-78
2023/11/08 02:57:19;;;;;;;0.10;0.10;;;9.50;99.90;;;;;;5069799;28;20190;-78
2023/11/08 02:59:46;;;;;;;0.10;0.10;;;9.40;99.90;;;;;;5067980;28;20644;-78
2023/11/08 03:02:11;;;;;;;0.10;0.10;;;9.40;99.90;;;;;;5068710;28;20610;-78
2023/11/08 03:04:38;;;;;;;0.10;0.10;;;9.30;99.90;;;;;;5070075;28;20222;-78
2023/11/08 03:07:04;;;;;;;0.10;0.10;;;9.30;99.90;;;;;;5068776;28;20667;-79
2023/11/08 03:09:30;;;;;;;0.10;0.10;;;9.30;99.90;;;;;;5065314;28;20185;-79
2023/11/08 03:11:57;;;;;;;0.10;0.10;;;9.40;99.90;;;;;;5067033;28;20193;-78
2023/11/08 03:14:27;;;;;;;0.10;0.10;;;9.40;99.90;;;;;;5069636;28;20232;-78
2023/11/08 03:16:53;;;;;;;0.10;0.10;;;9.40;99.90;;;;;;5069024;28;20177;-78
2023/11/08 03:19:22;;;;;;;0.10;0.10;;;9.40;99.90;;;;;;5068388;28;20262;-78
2023/11/08 03:21:48;;;;;;;0.10;0.10;;;9.40;99.90;;;;;;5069305;28;20185;-78
2023/11/08 03:24:14;;;;;;;0.10;0.10;;;9.40;99.90;;;;;;5062622;28;20342;-78
2023/11/08 03:26:40;;;;;;;0.10;0.10;;;9.50;99.90;;;;;;5069626;28;20203;-78
2023/11/08 03:29:05;;;;;;;0.10;0.10;;;9.50;99.90;;;;;;5068453;28;20672;-78
2023/11/08 03:31:32;;;;;;;0.10;0.10;;;9.50;99.90;;;;;;5061673;28;20215;-79
2023/11/08 03:33:58;;;;;;;0.00;0.00;;;9.50;99.90;;;;;;5069072;28;20213;-79
2023/11/08 03:36:25;;;;;;;0.03;0.03;;;9.60;99.90;;;;;;5068367;28;20242;-78
2023/11/08 03:38:51;;;;;;;0.10;0.10;;;9.50;99.90;;;;;;5068920;28;20594;-78
2023/11/08 03:41:16;;;;;;;0.10;0.10;;;9.50;99.90;;;;;;5068892;28;20185;-78
2023/11/08 03:43:42;;;;;;;0.10;0.10;;;9.50;99.90;;;;;;5068208;28;20584;-78
2023/11/08 03:46:07;;;;;;;0.10;0.10;;;9.30;99.90;;;;;;5069056;28;20181;-78
2023/11/08 03:48:33;;;;;;;0.10;0.10;;;9.30;99.90;;;;;;5069202;28;20195;-78
2023/11/08 03:50:59;;;;;;;0.10;0.10;;;9.20;99.90;;;;;;5063993;28;20187;-78
2023/11/08 03:53:24;;;;;;;0.10;0.10;;;9.10;99.90;;;;;;5069106;28;20651;-78
2023/11/08 03:55:50;;;;;;;0.10;0.10;;;9.20;99.90;;;;;;5067330;28;20204;-78
2023/11/08 03:58:16;;;;;;;0.10;0.10;;;9.20;99.90;;;;;;5068484;28;20177;-79
2023/11/08 04:00:42;;;;;;;0.10;0.10;;;9.30;99.90;;;;;;5066197;28;20181;-78
2023/11/08 04:03:07;;;;;;;0.10;0.10;;;9.40;99.90;;;;;;5069021;28;20592;-78
2023/11/08 04:05:33;;;;;;;1.93;1.90;;;9.40;99.90;;;;;;5068776;28;20188;-78
2023/11/08 04:07:59;;;;;;;0.10;0.10;;;9.40;99.90;;;;;;5068655;28;20215;-78
2023/11/08 04:10:25;;;;;;;0.10;0.10;;;9.40;99.90;;;;;;5066670;28;20196;-78
2023/11/08 04:12:51;;;;;;;0.10;0.10;;;9.40;99.90;;;;;;5063012;28;20201;-78
2023/11/08 04:15:18;;;;;;;0.00;0.00;;;9.40;99.90;;;;;;5068192;28;20224;-79
2023/11/08 04:17:43;;;;;;;0.10;0.10;;;9.50;99.90;;;;;;5067632;28;20185;-78
2023/11/08 04:20:09;;;;;;;0.10;0.10;;;9.50;99.90;;;;;;5064211;28;20188;-78
2023/11/08 04:22:35;;;;;;;0.10;0.10;;;9.50;99.90;;;;;;5066911;28;20184;-79
2023/11/08 04:25:01;;;;;;;0.10;0.10;;;9.40;99.90;;;;;;5062641;28;20201;-78
2023/11/08 04:27:26;;;;;;;0.10;0.10;;;9.40;99.90;;;;;;5067898;28;20606;-78
2023/11/08 04:29:52;;;;;;;0.10;0.10;;;9.40;99.90;;;;;;5064216;28;20200;-78
2023/11/08 04:32:17;;;;;;;0.10;0.10;;;9.40;99.90;;;;;;5065013;28;20185;-78
2023/11/08 04:34:43;;;;;;;0.10;0.10;;;9.40;99.90;;;;;;5068762;28;20227;-79
2023/11/08 04:37:11;;;;;;;0.10;0.10;;;9.40;99.90;;;;;;5068477;28;20656;-78
2023/11/08 04:39:37;;;;;;;0.10;0.10;;;9.40;99.90;;;;;;5068130;28;20668;-78
2023/11/08 04:42:03;;;;;;;0.03;0.03;;;9.40;99.90;;;;;;5068159;28;20222;-78
2023/11/08 04:44:29;;;;;;;0.10;0.10;;;9.50;99.90;;;;;;5066304;28;20209;-78
2023/11/08 04:46:54;;;;;;;0.10;0.10;;;9.50;99.90;;;;;;5068383;28;21176;-78
2023/11/08 04:49:20;;;;;;;0.10;0.10;;;9.40;99.90;;;;;;5064527;28;20196;-78
2023/11/08 04:51:45;;;;;;;0.10;0.10;;;9.50;99.90;;;;;;5068354;28;20189;-79
2023/11/08 04:54:12;;;;;;;0.10;0.10;;;9.40;99.90;;;;;;5064403;28;20209;-78
2023/11/08 04:56:38;;;;;;;0.10;0.10;;;9.30;99.90;;;;;;5066648;28;20230;-78
2023/11/08 04:59:06;;;;;;;0.10;0.10;;;9.30;99.90;;;;;;5062601;28;20185;-78
2023/11/08 05:01:32;;;;;;;0.10;0.10;;;9.40;99.90;;;;;;5067162;28;20223;-78
2023/11/08 05:03:59;;;;;;;0.10;0.10;;;9.30;99.90;;;;;;5067327;28;20596;-78
2023/11/08 05:06:25;;;;;;;0.10;0.10;;;9.30;99.90;;;;;;5067863;28;20192;-78
2023/11/08 05:08:50;;;;;;;0.10;0.10;;;9.40;99.90;;;;;;5067636;28;20181;-78
2023/11/08 05:11:17;;;;;;;0.10;0.10;;;9.40;99.90;;;;;;5066927;28;20208;-78
2023/11/08 05:13:42;;;;;;;0.10;0.10;;;9.50;99.90;;;;;;5067480;28;20300;-79
2023/11/08 05:16:10;;;;;;;0.10;0.10;;;9.50;99.90;;;;;;5068627;28;20255;-78
2023/11/08 05:18:36;;;;;;;0.00;0.00;;;9.50;99.90;;;;;;5066776;28;20636;-78
2023/11/08 05:21:01;;;;;;;0.00;0.00;;;9.40;99.90;;;;;;5070166;28;20185;-78
2023/11/08 05:23:27;;;;;;;0.10;0.10;;;9.40;99.90;;;;;;5070191;28;20320;-78
2023/11/08 05:25:52;;;;;;;0.10;0.10;;;9.40;99.90;;;;;;5069640;28;20276;-79
2023/11/08 05:28:18;;;;;;;0.00;0.00;;;9.40;99.90;;;;;;5069501;28;20283;-78
2023/11/08 05:30:44;;;;;;;0.10;0.10;;;9.40;99.90;;;;;;5068952;28;20189;-78
2023/11/08 05:33:11;;;;;;;0.10;0.10;;;9.40;99.90;;;;;;5067293;28;20197;-78
2023/11/08 05:35:37;;;;;;;0.10;0.10;;;9.30;99.90;;;;;;5066821;28;20181;-78
2023/11/08 05:38:03;;;;;;;0.10;0.10;;;9.40;99.90;;;;;;5065848;28;20177;-78
2023/11/08 05:40:30;;;;;;;0.10;0.10;;;9.40;99.90;;;;;;5069631;28;20219;-78
2023/11/08 05:42:55;;;;;;;0.10;0.10;;;9.40;99.90;;;;;;5070641;28;20291;-79
2023/11/08 05:45:21;;;;;;;0.10;0.10;;;9.40;99.90;;;;;;5070257;28;20211;-79
2023/11/08 05:47:47;;;;;;;0.10;0.10;;;9.30;99.90;;;;;;5070537;28;20193;-78
2023/11/08 05:50:13;;;;;;;0.10;0.10;;;9.30;99.90;;;;;;5068950;28;21182;-78
2023/11/08 05:52:39;;;;;;;0.10;0.10;;;9.30;99.90;;;;;;5067723;28;20205;-78
2023/11/08 05:55:05;;;;;;;0.10;0.10;;;9.30;99.90;;;;;;5064899;28;20200;-78
2023/11/08 05:57:30;;;;;;;0.10;0.10;;;9.30;99.90;;;;;;5069401;28;20641;-78
2023/11/08 05:59:56;;;;;;;0.10;0.10;;;9.30;99.90;;;;;;5068778;28;20215;-78
2023/11/08 06:02:22;;;;;;;0.10;0.10;;;9.30;99.90;;;;;;5070793;28;20177;-78
2023/11/08 06:04:48;;;;;;;0.10;0.10;;;9.30;99.90;;;;;;5070664;28;20309;-78
2023/11/08 06:07:14;;;;;;;0.10;0.10;;;9.30;99.90;;;;;;5063625;28;20660;-78
2023/11/08 06:09:43;;;;;;;0.10;0.10;;;9.30;99.90;;;;;;5066570;28;20211;-78
2023/11/08 06:12:08;;;;;;;0.10;0.10;;;9.30;99.90;;;;;;5065445;28;20607;-79
2023/11/08 06:14:34;;;;;;;0.10;0.10;;;9.30;99.90;;;;;;5065664;28;20422;-78
2023/11/08 06:16:59;;;;;;;0.10;0.10;;;9.30;99.90;;;;;;5069226;28;20718;-78
2023/11/08 06:19:25;;;;;;;0.10;0.10;;;9.20;99.90;;;;;;5070748;28;20652;-78
2023/11/08 06:21:52;;;;;;;0.10;0.10;;;9.10;99.90;;;;;;5068224;28;20560;-79
2023/11/08 06:24:17;;;;;;;0.10;0.10;;;9.10;99.90;;;;;;5069659;28;20209;-79
2023/11/08 06:26:43;;;;;;;0.10;0.10;;;9.10;99.90;;;;;;5065141;28;21076;-79
2023/11/08 06:29:09;;;;;;;0.10;0.10;;;9.10;99.90;;;;;;5064120;28;20180;-80
2023/11/08 06:31:36;;;;;;;0.03;0.03;;;9.10;99.90;;;;;;5063366;28;20188;-79
2023/11/08 06:34:02;;;;;;;0.10;0.10;;;9.10;99.90;;;;;;5067884;28;21227;-79
2023/11/08 06:36:28;;;;;;;0.10;0.10;;;9.10;99.90;;;;;;5068732;28;20230;-79
2023/11/08 06:38:54;;;;;;;0.10;0.10;;;9.20;99.90;;;;;;5062617;28;20174;-79
2023/11/08 06:41:19;;;;;;;0.10;0.10;;;9.20;99.90;;;;;;5068274;28;20603;-79
2023/11/08 06:43:46;;;;;;;0.10;0.10;;;9.10;99.90;;;;;;5066958;28;20209;-80
2023/11/08 06:46:14;;;;;;;0.10;0.10;;;9.20;99.90;;;;;;5064989;28;20223;-79
2023/11/08 06:48:39;;;;;;;0.10;0.10;;;9.20;99.90;;;;;;5068840;28;20193;-80
2023/11/08 06:51:05;;;;;;;0.10;0.10;;;9.30;99.90;;;;;;5070172;28;20195;-80
2023/11/08 06:53:30;;;;;;;0.07;0.07;;;9.40;99.90;;;;;;5068703;28;20214;-79
2023/11/08 06:55:57;;;;;;;0.10;0.10;;;9.40;99.90;;;;;;5069902;28;20283;-79
2023/11/08 06:58:30;;;;;;;0.10;0.10;;;9.40;99.90;;;;;;5069521;28;20180;-79
2023/11/08 07:01:01;;;;;;;0.10;0.10;;;9.40;99.90;;;;;;5069781;28;20279;-80
2023/11/08 07:03:26;;;;;;;0.10;0.10;;;9.40;99.90;;;;;;5067483;28;20337;-80
2023/11/08 07:05:52;;;;;;;0.10;0.10;;;9.50;99.90;;;;;;5069398;28;20733;-79
2023/11/08 07:08:17;;;;;;;0.10;0.10;;;9.50;99.90;;;;;;5069432;28;20302;-80
2023/11/08 07:10:45;;;;;;;0.10;0.10;;;9.50;99.90;;;;;;5069428;28;20262;-79
2023/11/08 07:13:10;;;;;;;0.10;0.10;;;9.60;99.90;;;;;;5067572;28;20638;-80
2023/11/08 07:15:36;;;;;;;0.00;0.00;;;9.60;99.90;;;;;;5060149;28;20268;-80
2023/11/08 07:18:02;;;;;;;0.10;0.10;;;9.50;99.90;;;;;;5062473;28;20208;-79
2023/11/08 07:20:27;;;;;;;0.10;0.10;;;9.50;99.90;;;;;;5068705;28;20205;-79
2023/11/08 07:22:53;;;;;;;0.10;0.10;;;9.40;99.90;;;;;;5061403;28;20264;-79
2023/11/08 07:25:19;;;;;;;0.10;0.10;;;9.40;99.90;;;;;;5065014;28;20280;-79
2023/11/08 07:27:44;;;;;;;0.10;0.10;;;9.50;99.90;;;;;;5068744;28;20200;-79
2023/11/08 07:30:14;;;;;;;0.10;0.10;;;9.50;99.90;;;;;;5063610;28;20177;-79
2023/11/08 07:32:40;;;;;;;0.10;0.10;;;9.70;99.90;;;;;;5067086;28;20213;-79
2023/11/08 07:35:07;;;;;;;0.10;0.10;;;9.90;99.90;;;;;;5058067;28;20201;-78
2023/11/08 07:37:33;;;;;;;0.10;0.10;;;10.10;99.90;;;;;;5063872;28;20190;-79
2023/11/08 07:39:59;;;;;;;0.10;0.10;;;10.20;99.90;;;;;;5060282;28;20595;-79
2023/11/08 07:42:26;;;;;;;0.10;0.10;;;10.20;99.90;;;;;;5067358;28;20181;-78
2023/11/08 07:44:52;;;;;;;0.10;0.10;;;10.00;99.90;;;;;;5067575;28;20193;-79
2023/11/08 07:47:18;;;;;;;0.10;0.10;;;10.00;99.90;;;;;;5067074;28;20260;-79
2023/11/08 07:49:44;;;;;;;0.10;0.10;;;10.00;99.90;;;;;;5068361;28;20262;-78
2023/11/08 07:52:09;;;;;;;0.10;0.10;;;9.90;99.90;;;;;;5068752;28;20204;-79
2023/11/08 07:54:36;;;;;;;0.10;0.10;;;9.90;99.90;;;;;;5060170;28;20216;-78
2023/11/08 07:57:03;;;;;;;0.10;0.10;;;10.00;99.90;;;;;;5068557;28;20659;-78
2023/11/08 07:59:29;;;;;;;0.10;0.10;;;10.00;99.90;;;;;;5067577;28;20204;-79
2023/11/08 08:01:55;;;;;;;0.10;0.10;;;10.00;99.90;;;;;;5068615;28;20230;-79
2023/11/08 08:04:20;;;;;;;0.10;0.10;;;10.00;99.90;;;;;;5061395;28;20215;-79
2023/11/08 08:06:46;;;;;;;0.10;0.10;;;10.00;99.90;;;;;;5060918;28;20193;-79
2023/11/08 08:09:15;;;;;;;0.10;0.10;;;9.90;99.90;;;;;;5060176;28;20243;-79
2023/11/08 08:11:46;;;;;;;0.10;0.10;;;10.00;99.90;;;;;;5061944;28;20203;-79
2023/11/08 08:14:13;;;;;;;0.10;0.10;;;10.00;99.90;;;;;;5065870;28;20308;-79
2023/11/08 08:16:42;;;;;;;0.10;0.10;;;10.00;99.90;;;;;;5068195;28;20181;-78
2023/11/08 08:19:08;;;;;;;0.10;0.10;;;10.10;99.90;;;;;;5065569;28;20270;-79
2023/11/08 08:21:34;;;;;;;0.10;0.10;;;10.30;99.90;;;;;;5067254;28;20531;-79
2023/11/08 08:24:00;;;;;;;0.10;0.10;;;10.50;99.90;;;;;;5064708;28;20211;-78
2023/11/08 08:26:25;;;;;;;0.10;0.10;;;10.70;99.90;;;;;;5060207;28;20734;-79
2023/11/08 08:28:51;;;;;;;0.10;0.10;;;10.90;99.90;;;;;;5058052;28;20280;-79
2023/11/08 08:31:17;;;;;;;0.10;0.10;;;10.90;99.90;;;;;;5066645;28;20196;-79
2023/11/08 08:33:43;;;;;;;0.10;0.10;;;10.90;99.90;;;;;;5066575;28;20224;-78
2023/11/08 08:36:08;;;;;;;0.10;0.10;;;11.20;99.90;;;;;;5065915;28;20181;-79
2023/11/08 08:38:36;;;;;;;0.10;0.10;;;11.00;99.90;;;;;;5065164;28;20277;-79
2023/11/08 08:41:01;;;;;;;0.10;0.10;;;11.00;99.90;;;;;;5057969;28;20644;-79
2023/11/08 08:43:28;;;;;;;0.10;0.10;;;10.90;99.90;;;;;;5061249;28;20213;-79
2023/11/08 08:45:53;;;;;;;0.10;0.10;;;10.80;99.90;;;;;;5067583;28;20286;-79
2023/11/08 08:48:19;;;;;;;0.10;0.10;;;10.70;99.90;;;;;;5065696;28;20267;-79
2023/11/08 08:50:44;;;;;;;0.10;0.10;;;10.70;99.90;;;;;;5065923;28;20189;-79
2023/11/08 08:53:10;;;;;;;0.00;0.00;;;10.70;99.90;;;;;;5067366;28;20279;-79
2023/11/08 08:55:36;;;;;;;0.10;0.10;;;10.70;99.90;;;;;;5069822;28;20177;-78
2023/11/08 08:58:02;;;;;;;0.10;0.10;;;10.70;99.90;;;;;;5067923;28;20204;-78
2023/11/08 09:00:28;;;;;;;0.10;0.10;;;10.60;99.90;;;;;;5066338;28;20189;-78
2023/11/08 09:02:54;;;;;;;0.10;0.10;;;10.60;99.90;;;;;;5068055;28;20709;-78
2023/11/08 09:05:23;;;;;;;0.10;0.10;;;10.60;99.90;;;;;;5070684;28;20212;-78
2023/11/08 09:07:50;;;;;;;0.10;0.10;;;10.50;99.90;;;;;;5070962;28;20181;-78
2023/11/08 09:10:16;;;;;;;0.00;0.00;;;10.50;99.90;;;;;;5065440;28;20188;-78
2023/11/08 09:12:42;;;;;;;0.10;0.10;;;10.50;99.90;;;;;;5069382;28;20196;-79
2023/11/08 09:15:08;;;;;;;0.10;0.10;;;10.40;99.90;;;;;;5066388;28;20224;-79
2023/11/08 09:17:34;;;;;;;0.10;0.10;;;10.50;99.90;;;;;;5070788;28;20231;-79
2023/11/08 09:20:04;;;;;;;0.10;0.10;;;10.40;99.90;;;;;;5071513;28;20233;-79
2023/11/08 09:22:30;;;;;;;0.10;0.10;;;10.50;99.90;;;;;;5070672;28;20173;-79
2023/11/08 09:24:57;;;;;;;0.00;0.00;;;10.40;99.90;;;;;;5068908;28;21204;-79
2023/11/08 09:27:23;;;;;;;0.10;0.10;;;10.30;99.90;;;;;;5069588;28;20230;-79
2023/11/08 09:29:48;;;;;;;0.10;0.10;;;10.40;99.90;;;;;;5066774;28;20271;-79
2023/11/08 09:32:14;;;;;;;0.10;0.10;;;10.30;99.90;;;;;;5069371;28;20184;-79
2023/11/08 09:34:39;;;;;;;0.10;0.10;;;10.30;99.90;;;;;;5070431;28;20879;-79
2023/11/08 09:37:05;;;;;;;0.10;0.10;;;10.40;99.90;;;;;;5071037;28;20177;-80
2023/11/08 09:39:32;;;;;;;0.10;0.10;;;10.40;99.90;;;;;;5070524;28;20188;-80
2023/11/08 09:41:58;;;;;;;0.10;0.10;;;10.50;99.90;;;;;;5062499;28;20177;-79
2023/11/08 09:44:24;;;;;;;0.10;0.10;;;10.50;99.90;;;;;;5068146;28;20204;-79
2023/11/08 09:46:53;;;;;;;0.10;0.10;;;10.70;99.90;;;;;;5069157;28;20646;-79
2023/11/08 09:49:19;;;;;;;0.10;0.10;;;10.70;99.90;;;;;;5067731;28;20230;-79
2023/11/08 09:51:44;;;;;;;0.07;0.07;;;10.70;99.90;;;;;;5066903;28;20197;-80
2023/11/08 09:54:12;;;;;;;0.10;0.10;;;10.60;99.90;;;;;;5063887;28;20217;-79
2023/11/08 09:56:41;;;;;;;0.10;0.10;;;10.60;99.90;;;;;;5063982;28;20609;-78
2023/11/08 09:59:07;;;;;;;0.10;0.10;;;10.80;99.90;;;;;;5069172;28;20181;-78
2023/11/08 10:01:36;;;;;;;0.10;0.10;;;11.10;99.90;;;;;;5065978;28;20173;-79
2023/11/08 10:04:03;;;;;;;0.10;0.10;;;11.20;99.90;;;;;;5065520;28;20217;-79
2023/11/08 10:06:31;;;;;;;0.10;0.10;;;11.50;99.90;;;;;;5067809;28;20197;-78
2023/11/08 10:08:58;;;;;;;0.10;0.10;;;11.90;99.90;;;;;;5067553;28;20271;-78
2023/11/08 10:11:28;;;;;;;0.10;0.10;;;12.20;99.90;;;;;;5069856;28;20208;-78
2023/11/08 10:13:54;;;;;;;0.10;0.10;;;12.70;99.90;;;;;;5069519;28;20299;-78
2023/11/08 10:16:21;;;;;;;0.10;0.10;;;13.00;99.90;;;;;;5063907;28;20590;-78
2023/11/08 10:19:00;;;;;;;0.10;0.10;;;13.40;99.90;;;;;;5069345;28;20178;-78
2023/11/08 10:21:27;;;;;;;0.10;0.10;;;13.80;99.90;;;;;;5070726;28;20188;-78
2023/11/08 10:23:55;;;;;;;0.10;0.10;;;14.00;99.90;;;;;;5070230;28;20215;-78
2023/11/08 10:26:23;;;;;;;0.10;0.10;;;14.30;99.90;;;;;;5066731;28;20193;-78
2023/11/08 10:29:03;;;;;;;0.10;0.10;;;14.40;99.90;;;;;;5069382;28;20209;-78
2023/11/08 10:31:35;;;;;;;0.10;0.10;;;14.50;99.90;;;;;;5071273;28;20194;-78
2023/11/08 10:34:09;;;;;;;0.10;0.10;;;14.20;99.90;;;;;;5069322;28;20220;-78
2023/11/08 10:36:37;;;;;;;0.10;0.10;;;13.80;99.90;;;;;;5069354;28;20298;-79
2023/11/08 10:39:05;;;;;;;0.10;0.10;;;13.50;99.90;;;;;;5068308;28;20352;-78
2023/11/08 10:41:31;;;;;;;0.10;0.10;;;13.80;99.90;;;;;;5069133;28;20186;-79
2023/11/08 10:44:07;;;;;;;0.10;0.10;;;14.20;99.90;;;;;;5063126;28;20208;-78
2023/11/08 10:46:33;;;;;;;0.10;0.10;;;14.40;99.90;;;;;;5065405;28;20192;-79
2023/11/08 10:48:59;;;;;;;0.10;0.10;;;14.10;99.90;;;;;;5068658;28;20285;-78
2023/11/08 10:51:25;;;;;;;0.10;0.10;;;13.70;99.90;;;;;;5068401;28;20282;-79
2023/11/08 10:53:51;;;;;;;0.10;0.10;;;13.60;99.90;;;;;;5064824;28;20652;-78
2023/11/08 10:56:20;;;;;;;0.00;0.00;;;13.40;99.90;;;;;;5068650;28;20185;-78
2023/11/08 10:58:47;;;;;;;0.00;0.00;;;13.20;99.90;;;;;;5068082;28;20596;-79
2023/11/08 11:01:13;;;;;;;0.10;0.10;;;12.90;99.90;;;;;;5065596;28;20215;-78
2023/11/08 11:03:42;;;;;;;0.10;0.10;;;12.80;99.90;;;;;;5065219;28;20244;-78
2023/11/08 11:06:08;;;;;;;0.10;0.10;;;12.90;99.90;;;;;;5065681;28;20605;-79
2023/11/08 11:08:40;;;;;;;0.10;0.10;;;13.10;99.90;;;;;;5068684;28;20185;-78
2023/11/08 11:11:08;;;;;;;0.10;0.10;;;13.20;99.90;;;;;;5069267;28;20205;-79
2023/11/08 11:14:03;;;;;;;0.10;0.10;;;13.40;99.90;;;;;;5062589;28;20224;-79
2023/11/08 11:16:32;;;;;;;0.10;0.10;;;13.20;99.90;;;;;;5067253;28;20200;-78
2023/11/08 11:19:02;;;;;;;0.10;0.10;;;13.00;99.90;;;;;;5062826;28;20185;-79
2023/11/08 11:21:49;;;;;;;0.10;0.10;;;12.90;99.90;;;;;;5065697;28;20181;-79
2023/11/08 11:24:32;;;;;;;0.00;0.00;;;12.80;99.90;;;;;;5071444;28;20741;-80
2023/11/08 11:26:58;;;;;;;0.10;0.10;;;12.70;99.90;;;;;;5069179;28;21146;-79
2023/11/08 11:29:29;;;;;;;0.10;0.10;;;12.60;99.90;;;;;;5070458;28;20238;-79
2023/11/08 11:31:55;;;;;;;0.10;0.10;;;12.50;99.90;;;;;;5065826;28;20275;-79
2023/11/08 11:34:20;;;;;;;0.10;0.10;;;12.50;99.90;;;;;;5069598;28;20242;-79
2023/11/08 11:37:02;;;;;;;0.10;0.10;;;12.50;99.90;;;;;;5067523;28;20645;-78
2023/11/08 11:39:31;;;;;;;0.10;0.10;;;12.70;99.90;;;;;;5066792;28;20185;-79
2023/11/08 11:42:06;;;;;;;0.00;0.00;;;12.70;99.90;;;;;;5065605;28;20186;-79
2023/11/08 11:44:51;;;;;;;0.10;0.10;;;12.70;99.90;;;;;;5067832;28;20774;-78
2023/11/08 11:47:22;;;;;;;0.10;0.10;;;12.70;99.90;;;;;;5070656;28;20191;-79
2023/11/08 11:49:48;;;;;;;0.10;0.10;;;13.10;99.90;;;;;;5073358;28;20623;-78
2023/11/08 11:52:16;;;;;;;0.10;0.10;;;13.00;99.90;;;;;;5067011;28;20222;-79
2023/11/08 11:54:52;;;;;;;0.10;0.10;;;12.90;99.90;;;;;;5069019;28;20209;-78
2023/11/08 11:57:19;;;;;;;0.10;0.10;;;13.10;99.90;;;;;;5069915;28;20199;-78
2023/11/08 11:59:50;;;;;;;0.10;0.10;;;13.00;99.90;;;;;;5074081;28;20547;-79
2023/11/08 12:02:16;;;;;;;0.10;0.10;;;12.90;99.90;;;;;;5069925;28;20180;-79
2023/11/08 12:04:43;;;;;;;0.10;0.10;;;12.70;99.90;;;;;;5067214;28;20770;-78
2023/11/08 12:07:11;;;;;;;0.10;0.10;;;12.80;99.90;;;;;;5067328;28;20406;-79
2023/11/08 12:09:38;;;;;;;0.10;0.10;;;12.90;99.90;;;;;;5070003;28;20181;-79
2023/11/08 12:12:04;;;;;;;0.10;0.10;;;13.00;99.90;;;;;;5066167;28;20211;-79
2023/11/08 12:14:30;;;;;;;0.10;0.10;;;12.90;99.90;;;;;;5074766;28;20219;-79
2023/11/08 12:16:56;;;;;;;0.10;0.10;;;12.90;99.90;;;;;;5068736;28;20252;-79
2023/11/08 12:19:22;;;;;;;0.10;0.10;;;12.90;99.90;;;;;;5067127;28;20530;-79
2023/11/08 12:21:47;;;;;;;0.10;0.10;;;12.80;99.90;;;;;;5068395;28;20186;-79
2023/11/08 12:24:14;;;;;;;0.10;0.10;;;12.80;99.90;;;;;;5068082;28;20303;-78
2023/11/08 12:26:40;;;;;;;0.10;0.10;;;12.70;99.90;;;;;;5066616;28;20269;-80
2023/11/08 12:29:06;;;;;;;0.10;0.10;;;12.60;99.90;;;;;;5070424;28;20188;-78
2023/11/08 12:31:34;;;;;;;0.10;0.10;;;12.60;99.90;;;;;;5073906;28;20196;-78
2023/11/08 12:34:00;;;;;;;0.10;0.10;;;12.60;99.90;;;;;;5073742;28;20620;-78
2023/11/08 12:36:25;;;;;;;0.10;0.10;;;12.60;99.90;;;;;;5073360;28;20227;-79
2023/11/08 12:38:51;;;;;;;0.10;0.10;;;12.50;99.90;;;;;;5073209;28;20194;-79
2023/11/08 12:41:17;;;;;;;0.10;0.10;;;12.50;99.90;;;;;;5074099;28;20177;-79
2023/11/08 12:43:59;;;;;;;0.10;0.10;;;12.50;99.90;;;;;;5075284;28;20207;-79
2023/11/08 12:46:24;;;;;;;0.10;0.10;;;12.50;99.90;;;;;;5069849;28;20289;-79
2023/11/08 12:48:57;;;;;;;0.10;0.10;;;12.60;99.90;;;;;;5072282;28;20304;-79
2023/11/08 12:51:31;;;;;;;0.10;0.10;;;12.50;99.90;;;;;;5076607;28;21110;-79